createdAt,value
2018-07-23T00:00:44.134Z,94478.61
2018-07-23T00:03:10.787Z,94483.81
2018-07-23T00:05:37.421Z,94486.91
2018-07-23T00:08:04.059Z,94491.45
2018-07-23T00:10:30.734Z,94480.30
2018-07-23T00:12:57.482Z,94480.30
2018-07-23T00:15:24.106Z,94471.08
2018-07-23T00:17:50.740Z,94468.39
2018-07-23T00:20:17.419Z,94472.00
2018-07-23T00:22:44.097Z,94468.02
2018-07-23T00:25:10.747Z,94466.42
2018-07-23T00:27:37.372Z,94466.52
2018-07-23T00:30:04.036Z,94463.55
2018-07-23T00:32:30.668Z,94464.64
2018-07-23T00:34:57.312Z,94459.73
2018-07-23T00:37:24.033Z,94464.95
2018-07-23T00:39:50.628Z,94471.72
2018-07-23T00:42:17.272Z,94468.56
2018-07-23T00:44:43.922Z,94475.09
2018-07-23T00:47:10.552Z,94472.66
2018-07-23T00:49:40.556Z,94465.02
2018-07-23T00:52:07.220Z,94469.03
2018-07-23T00:54:33.863Z,94460.28
2018-07-23T00:57:00.511Z,94464.00
2018-07-23T00:59:27.152Z,94457.39
2018-07-23T01:01:53.798Z,94450.34
2018-07-23T01:04:20.499Z,94465.22
2018-07-23T01:06:47.110Z,94471.54
2018-07-23T01:09:13.789Z,94474.23
2018-07-23T01:11:40.454Z,94475.35
2018-07-23T01:14:07.098Z,94463.34
2018-07-23T01:16:33.776Z,94473.20
2018-07-23T01:19:01.795Z,94472.28
2018-07-23T01:21:27.041Z,94474.87
2018-07-23T01:23:53.730Z,94467.83
2018-07-23T01:26:20.371Z,94466.87
2018-07-23T01:28:47.009Z,94471.90
2018-07-23T01:31:13.728Z,94466.59
2018-07-23T01:33:40.367Z,94470.41
2018-07-23T01:36:07.034Z,94467.89
2018-07-23T01:38:33.674Z,94470.31
2018-07-23T01:41:00.318Z,94467.45
2018-07-23T01:43:26.986Z,94467.82
2018-07-23T01:45:53.663Z,94465.03
2018-07-23T01:48:20.364Z,94463.52
2018-07-23T01:50:47.034Z,94459.81
2018-07-23T01:53:13.703Z,94466.48
2018-07-23T01:55:40.335Z,94466.96
2018-07-23T01:58:06.975Z,94464.28
2018-07-23T02:00:33.633Z,94457.84
2018-07-23T02:03:00.275Z,94456.83
2018-07-23T02:05:26.939Z,94448.83
2018-07-23T02:07:53.591Z,94451.23
2018-07-23T02:10:20.212Z,94448.23
2018-07-23T02:12:48.280Z,94453.48
2018-07-23T02:15:13.585Z,94461.95
2018-07-23T02:17:40.248Z,94464.06
2018-07-23T02:20:06.843Z,94464.91
2018-07-23T02:22:33.526Z,94470.39
2018-07-23T02:25:00.167Z,94466.58
2018-07-23T02:27:26.801Z,94464.45
2018-07-23T02:29:53.443Z,94466.73
2018-07-23T02:32:20.133Z,94473.88
2018-07-23T02:34:46.761Z,94467.21
2018-07-23T02:37:13.441Z,94463.03
2018-07-23T02:39:40.098Z,94457.52
2018-07-23T02:42:06.865Z,94455.11
2018-07-23T02:44:33.548Z,94466.27
2018-07-23T02:47:00.178Z,94469.80
2018-07-23T02:49:26.812Z,94462.66
2018-07-23T02:51:53.458Z,94463.66
2018-07-23T02:54:20.128Z,94459.48
2018-07-23T02:56:46.805Z,94458.63
2018-07-23T02:59:13.455Z,94453.53
2018-07-23T03:01:40.144Z,94452.59
2018-07-23T03:04:06.772Z,94454.72
2018-07-23T03:06:33.456Z,94455.90
2018-07-23T03:09:00.096Z,94456.20
2018-07-23T03:11:26.731Z,94455.27
2018-07-23T03:13:53.353Z,94460.43
2018-07-23T03:16:20.005Z,94458.38
2018-07-23T03:18:46.641Z,94460.61
2018-07-23T03:21:13.312Z,94459.05
2018-07-23T03:23:39.945Z,94455.72
2018-07-23T03:26:06.610Z,94457.86
2018-07-23T03:28:33.255Z,94444.20
2018-07-23T03:31:00.015Z,94443.27
2018-07-23T03:33:26.667Z,94436.94
2018-07-23T03:35:53.305Z,94440.17
2018-07-23T03:38:19.998Z,94438.47
2018-07-23T03:40:46.631Z,94444.34
2018-07-23T03:43:13.265Z,94431.44
2018-07-23T03:45:39.975Z,94433.78
2018-07-23T03:48:06.662Z,94439.27
2018-07-23T03:50:33.294Z,94434.60
2018-07-23T03:52:59.933Z,94439.08
2018-07-23T03:55:26.580Z,94432.95
2018-07-23T03:57:53.231Z,94443.58
2018-07-23T04:00:19.882Z,94436.31
2018-07-23T04:02:46.552Z,94431.28
2018-07-23T04:05:13.232Z,94434.83
2018-07-23T04:07:39.870Z,94432.22
2018-07-23T04:10:06.554Z,94442.73
2018-07-23T04:12:33.169Z,94447.59
2018-07-23T04:14:59.777Z,94456.07
2018-07-23T04:17:26.448Z,94462.61
2018-07-23T04:19:53.084Z,94454.41
2018-07-23T04:22:19.772Z,94450.03
2018-07-23T04:24:46.399Z,94459.26
2018-07-23T04:27:13.099Z,94453.86
2018-07-23T04:29:39.744Z,94449.89
2018-07-23T04:32:06.378Z,94446.19
2018-07-23T04:34:33.059Z,94444.37
2018-07-23T04:36:59.726Z,94454.42
2018-07-23T04:39:26.357Z,94448.84
2018-07-23T04:41:53.047Z,94447.24
2018-07-23T04:44:19.643Z,94442.33
2018-07-23T04:46:46.283Z,94439.82
2018-07-23T04:49:12.977Z,94444.66
2018-07-23T04:51:39.597Z,94437.03
2018-07-23T04:54:06.230Z,94440.20
2018-07-23T04:56:32.903Z,94439.55
2018-07-23T04:58:59.543Z,94430.52
2018-07-23T05:01:26.149Z,94425.49
2018-07-23T05:03:52.775Z,94425.66
2018-07-23T05:06:19.411Z,94417.97
2018-07-23T05:08:46.121Z,94418.15
2018-07-23T05:11:12.728Z,94420.94
2018-07-23T05:13:39.370Z,94421.86
2018-07-23T05:16:06.132Z,94414.20
2018-07-23T05:18:32.728Z,94419.42
2018-07-23T05:20:59.364Z,94414.55
2018-07-23T05:23:26.012Z,94419.24
2018-07-23T05:25:52.652Z,94410.92
2018-07-23T05:28:19.355Z,94411.19
2018-07-23T05:30:46.078Z,94412.56
2018-07-23T05:33:12.681Z,94420.80
2018-07-23T05:35:39.356Z,94418.64
2018-07-23T05:38:05.970Z,94422.70
2018-07-23T05:40:32.642Z,94431.76
2018-07-23T05:42:59.303Z,94426.38
2018-07-23T05:45:25.954Z,94421.18
2018-07-23T05:47:52.655Z,94418.41
2018-07-23T05:50:19.336Z,94413.95
2018-07-23T05:52:46.029Z,94412.48
2018-07-23T05:55:12.669Z,94414.91
2018-07-23T05:57:39.404Z,94406.23
2018-07-23T06:00:05.981Z,94405.84
2018-07-23T06:02:32.662Z,94408.62
2018-07-23T06:04:59.299Z,94412.23
2018-07-23T06:07:25.960Z,94408.88
2018-07-23T06:09:52.716Z,94408.48
2018-07-23T06:12:19.293Z,94413.26
2018-07-23T06:14:46.073Z,94419.38
2018-07-23T06:17:12.777Z,94416.85
2018-07-23T06:19:39.450Z,94420.34
2018-07-23T06:22:06.082Z,94420.06
2018-07-23T06:24:32.731Z,94417.23
2018-07-23T06:26:59.497Z,94416.94
2018-07-23T06:29:26.137Z,94410.41
2018-07-23T06:31:52.805Z,94410.72
2018-07-23T06:34:19.447Z,94410.64
2018-07-23T06:36:46.150Z,94408.09
2018-07-23T06:39:12.786Z,94412.02
2018-07-23T06:41:39.434Z,94409.23
2018-07-23T06:44:06.102Z,94413.45
2018-07-23T06:46:32.795Z,94409.11
2018-07-23T06:48:59.428Z,94403.25
2018-07-23T06:51:26.143Z,94406.02
2018-07-23T06:53:52.745Z,94401.84
2018-07-23T06:56:19.477Z,94393.88
2018-07-23T06:58:46.101Z,94401.60
2018-07-23T07:01:12.746Z,94395.16
2018-07-23T07:03:39.386Z,94399.36
2018-07-23T07:06:06.040Z,94386.91
2018-07-23T07:08:32.691Z,94391.99
2018-07-23T07:10:59.390Z,94391.21
2018-07-23T07:13:26.027Z,94383.81
2018-07-23T07:15:52.645Z,94373.31
2018-07-23T07:18:19.329Z,94392.27
2018-07-23T07:20:45.992Z,94390.05
2018-07-23T07:23:12.628Z,94390.41
2018-07-23T07:25:39.281Z,94394.59
2018-07-23T07:28:05.910Z,94387.44
2018-07-23T07:30:33.762Z,94388.52
2018-07-23T07:33:00.493Z,94393.09
2018-07-23T07:35:27.128Z,94379.38
2018-07-23T07:37:53.821Z,94381.59
2018-07-23T07:40:20.453Z,94384.24
2018-07-23T07:42:47.119Z,94379.28
2018-07-23T07:45:13.735Z,94375.43
2018-07-23T07:47:40.399Z,94368.56
2018-07-23T07:50:07.057Z,94372.20
2018-07-23T07:52:33.686Z,94366.03
2018-07-23T07:55:00.359Z,94366.34
2018-07-23T07:57:27.034Z,94362.22
2018-07-23T07:59:53.712Z,94353.89
2018-07-23T08:02:20.379Z,94358.62
2018-07-23T08:04:47.062Z,94343.09
2018-07-23T08:07:14.068Z,94353.41
2018-07-23T08:09:40.661Z,94342.70
2018-07-23T08:12:07.302Z,94347.94
2018-07-23T08:14:33.980Z,94346.05
2018-07-23T08:17:00.619Z,94343.84
2018-07-23T08:19:27.300Z,94342.29
2018-07-23T08:21:53.954Z,94339.46
2018-07-23T08:24:20.636Z,94331.37
2018-07-23T08:26:47.277Z,94332.84
2018-07-23T08:29:14.079Z,94339.49
2018-07-23T08:31:40.838Z,94335.58
2018-07-23T08:34:07.428Z,94337.08
2018-07-23T08:36:34.155Z,94330.73
2018-07-23T08:39:00.756Z,94325.31
2018-07-23T08:41:27.450Z,94320.47
2018-07-23T08:43:54.202Z,94314.43
2018-07-23T08:46:20.839Z,94320.44
2018-07-23T08:48:47.525Z,94317.84
2018-07-23T08:51:14.156Z,94317.69
2018-07-23T08:53:40.823Z,94317.32
2018-07-23T08:56:07.527Z,94305.73
2018-07-23T08:58:34.135Z,94313.75
2018-07-23T09:01:00.813Z,94288.89
2018-07-23T09:03:27.489Z,94298.20
2018-07-23T09:05:54.133Z,94296.51
2018-07-23T09:08:20.857Z,94296.92
2018-07-23T09:10:47.445Z,94294.14
2018-07-23T09:13:14.089Z,94275.08
2018-07-23T09:15:40.735Z,94282.03
2018-07-23T09:18:07.367Z,94281.23
2018-07-23T09:20:34.011Z,94271.60
2018-07-23T09:23:00.656Z,94263.35
2018-07-23T09:25:27.285Z,94266.92
2018-07-23T09:27:53.933Z,94265.34
2018-07-23T09:30:20.607Z,94264.72
2018-07-23T09:32:47.206Z,94263.05
2018-07-23T09:35:13.854Z,94258.48
2018-07-23T09:37:40.519Z,94257.85
2018-07-23T09:40:07.152Z,94254.64
2018-07-23T09:42:33.791Z,94257.19
2018-07-23T09:45:00.430Z,94244.55
2018-07-23T09:47:27.073Z,94239.09
2018-07-23T09:49:53.713Z,94217.00
2018-07-23T09:52:20.385Z,94224.58
2018-07-23T09:54:47.034Z,94228.40
2018-07-23T09:57:13.668Z,94224.93
2018-07-23T09:59:40.361Z,94232.83
2018-07-23T10:02:06.992Z,94227.23
2018-07-23T10:04:33.635Z,94217.95
2018-07-23T10:07:00.274Z,94218.77
2018-07-23T10:09:26.917Z,94215.80
2018-07-23T10:11:53.567Z,94235.42
2018-07-23T10:14:20.210Z,94231.13
2018-07-23T10:16:46.861Z,94233.08
2018-07-23T10:19:13.535Z,94233.26
2018-07-23T10:21:40.193Z,94224.80
2018-07-23T10:24:06.864Z,94237.11
2018-07-23T10:26:33.697Z,94242.48
2018-07-23T10:29:00.441Z,94238.53
2018-07-23T10:31:27.091Z,94218.67
2018-07-23T10:33:53.787Z,94213.97
2018-07-23T10:36:20.423Z,94216.78
2018-07-23T10:38:47.075Z,94218.30
2018-07-23T10:41:13.737Z,94213.80
2018-07-23T10:43:40.372Z,94210.98
2018-07-23T10:46:07.002Z,94211.73
2018-07-23T10:48:33.667Z,94214.27
2018-07-23T10:51:00.387Z,94214.84
2018-07-23T10:53:26.987Z,94215.39
2018-07-23T10:55:53.612Z,94213.59
2018-07-23T10:58:20.261Z,94201.33
2018-07-23T11:00:47.212Z,94209.84
2018-07-23T11:03:13.851Z,94203.86
2018-07-23T11:05:40.529Z,94194.59
2018-07-23T11:08:07.228Z,94202.98
2018-07-23T11:10:33.865Z,94199.78
2018-07-23T11:13:00.532Z,94164.75
2018-07-23T11:15:27.167Z,94172.27
2018-07-23T11:17:53.828Z,94162.33
2018-07-23T11:20:20.510Z,94152.73
2018-07-23T11:22:47.168Z,94162.70
2018-07-23T11:25:38.703Z,94158.11
2018-07-23T11:27:40.470Z,94161.28
2018-07-23T11:30:07.151Z,94153.82
2018-07-23T11:32:33.833Z,94153.16
2018-07-23T11:35:00.480Z,94154.59
2018-07-23T11:37:27.178Z,94142.19
2018-07-23T11:39:53.826Z,94138.57
2018-07-23T11:42:20.465Z,94134.34
2018-07-23T11:44:47.132Z,94143.56
2018-07-23T11:47:13.817Z,94142.83
2018-07-23T11:49:40.471Z,94153.50
2018-07-23T11:52:14.355Z,94150.80
2018-07-23T11:54:33.784Z,94141.09
2018-07-23T11:57:00.492Z,94137.61
2018-07-23T11:59:27.065Z,94139.69
2018-07-23T12:01:53.779Z,94134.77
2018-07-23T12:04:20.467Z,94149.38
2018-07-23T12:06:47.022Z,94150.37
2018-07-23T12:09:13.724Z,94155.92
2018-07-23T12:11:40.367Z,94159.25
2018-07-23T12:14:07.020Z,94157.59
2018-07-23T12:16:33.670Z,94168.77
2018-07-23T12:19:00.340Z,94166.89
2018-07-23T12:21:26.980Z,94161.20
2018-07-23T12:23:53.641Z,94160.60
2018-07-23T12:26:20.284Z,94168.42
2018-07-23T12:28:46.930Z,94162.73
2018-07-23T12:31:13.566Z,94165.70
2018-07-23T12:33:40.215Z,94167.70
2018-07-23T12:36:06.863Z,94153.07
2018-07-23T12:38:33.507Z,94171.45
2018-07-23T12:41:00.173Z,94179.44
2018-07-23T12:43:26.815Z,94165.35
2018-07-23T12:45:53.463Z,94155.80
2018-07-23T12:48:20.092Z,94147.56
2018-07-23T12:50:46.737Z,94137.41
2018-07-23T12:53:13.392Z,94144.12
2018-07-23T12:55:40.035Z,94144.44
2018-07-23T12:58:06.677Z,94150.70
2018-07-23T13:00:33.312Z,94147.14
2018-07-23T13:02:59.959Z,94133.39
2018-07-23T13:05:26.614Z,94141.30
2018-07-23T13:07:53.247Z,94131.98
2018-07-23T13:10:19.927Z,94130.13
2018-07-23T13:12:46.531Z,94131.05
2018-07-23T13:15:13.201Z,94134.53
2018-07-23T13:17:39.848Z,94132.36
2018-07-23T13:20:06.485Z,94129.38
2018-07-23T13:22:33.124Z,94131.33
2018-07-23T13:24:59.768Z,94118.92
2018-07-23T13:27:26.434Z,94124.19
2018-07-23T13:29:53.073Z,94111.61
2018-07-23T13:32:19.776Z,94105.56
2018-07-23T13:34:46.449Z,94115.31
2018-07-23T13:37:13.190Z,94125.50
2018-07-23T13:39:39.827Z,94139.25
2018-07-23T13:42:06.469Z,94146.55
2018-07-23T13:44:33.205Z,94152.73
2018-07-23T13:46:59.899Z,94145.55
2018-07-23T13:49:26.545Z,94131.23
2018-07-23T13:51:53.231Z,94151.66
2018-07-23T13:54:19.925Z,94153.34
2018-07-23T13:56:46.534Z,94155.85
2018-07-23T13:59:13.165Z,94157.74
2018-07-23T14:01:39.844Z,94147.43
2018-07-23T14:04:06.448Z,94160.98
2018-07-23T14:06:33.191Z,94174.14
2018-07-23T14:08:59.795Z,94180.12
2018-07-23T14:11:26.434Z,94181.16
2018-07-23T14:13:53.113Z,94179.30
2018-07-23T14:16:19.751Z,94196.04
2018-07-23T14:18:46.414Z,94195.13
2018-07-23T14:21:13.075Z,94212.45
2018-07-23T14:23:39.755Z,94225.70
2018-07-23T14:26:06.473Z,94264.14
2018-07-23T14:28:33.143Z,94254.72
2018-07-23T14:30:59.749Z,94258.99
2018-07-23T14:33:26.388Z,94252.80
2018-07-23T14:35:53.026Z,94241.27
2018-07-23T14:38:19.683Z,94242.44
2018-07-23T14:40:46.344Z,94242.98
2018-07-23T14:43:12.996Z,94225.76
2018-07-23T14:45:39.652Z,94215.37
2018-07-23T14:48:06.294Z,94211.18
2018-07-23T14:50:32.923Z,94203.08
2018-07-23T14:52:59.567Z,94189.19
2018-07-23T14:55:26.237Z,94186.12
2018-07-23T14:57:53.027Z,94195.63
2018-07-23T15:00:19.662Z,94189.96
2018-07-23T15:02:46.297Z,94183.96
2018-07-23T15:05:12.946Z,94183.91
2018-07-23T15:07:39.582Z,94164.13
2018-07-23T15:10:06.214Z,94166.17
2018-07-23T15:12:32.874Z,94159.98
2018-07-23T15:14:59.558Z,94160.80
2018-07-23T15:17:26.231Z,94162.33
2018-07-23T15:19:52.832Z,94176.08
2018-07-23T15:22:19.584Z,94182.92
2018-07-23T15:24:46.181Z,94185.30
2018-07-23T15:27:12.819Z,94189.50
2018-07-23T15:29:39.451Z,94179.89
2018-07-23T15:32:06.089Z,94163.17
2018-07-23T15:34:32.739Z,94165.97
2018-07-23T15:36:59.407Z,94186.19
2018-07-23T15:39:26.058Z,94183.91
2018-07-23T15:41:52.694Z,94178.32
2018-07-23T15:44:19.426Z,94167.88
2018-07-23T15:46:45.966Z,94170.16
2018-07-23T15:49:12.605Z,94166.44
2018-07-23T15:51:39.269Z,94166.34
2018-07-23T15:54:05.895Z,94165.36
2018-07-23T15:56:32.528Z,94163.91
2018-07-23T15:58:59.203Z,94165.09
2018-07-23T16:01:26.225Z,94171.56
2018-07-23T16:03:52.874Z,94166.05
2018-07-23T16:06:19.548Z,94165.15
2018-07-23T16:08:46.194Z,94167.31
2018-07-23T16:11:12.797Z,94170.45
2018-07-23T16:13:39.429Z,94164.67
2018-07-23T16:16:06.067Z,94164.02
2018-07-23T16:18:32.706Z,94175.67
2018-07-23T16:20:59.339Z,94175.91
2018-07-23T16:23:25.982Z,94174.04
2018-07-23T16:25:53.913Z,94172.99
2018-07-23T16:28:19.259Z,94178.11
2018-07-23T16:30:45.915Z,94180.47
2018-07-23T16:33:12.568Z,94178.70
2018-07-23T16:35:39.199Z,94181.84
2018-07-23T16:38:05.860Z,94180.14
2018-07-23T16:40:32.472Z,94172.69
2018-07-23T16:42:59.125Z,94181.72
2018-07-23T16:45:25.745Z,94179.20
2018-07-23T16:47:52.453Z,94190.38
2018-07-23T16:50:19.066Z,94179.30
2018-07-23T16:52:45.692Z,94178.93
2018-07-23T16:55:12.373Z,94178.09
2018-07-23T16:57:38.998Z,94187.56
2018-07-23T17:00:05.639Z,94180.27
2018-07-23T17:02:32.277Z,94181.53
2018-07-23T17:04:58.941Z,94173.99
2018-07-23T17:07:25.619Z,94174.20
2018-07-23T17:09:52.262Z,94181.35
2018-07-23T17:12:18.931Z,94185.63
2018-07-23T17:14:45.567Z,94195.31
2018-07-23T17:17:12.200Z,94200.80
2018-07-23T17:19:38.880Z,94192.27
2018-07-23T17:22:05.517Z,94200.83
2018-07-23T17:24:32.143Z,94203.08
2018-07-23T17:26:58.793Z,94199.92
2018-07-23T17:29:25.468Z,94198.25
2018-07-23T17:31:52.100Z,94196.11
2018-07-23T17:34:18.736Z,94208.81
2018-07-23T17:36:45.361Z,94205.12
2018-07-23T17:39:12.051Z,94213.34
2018-07-23T17:41:38.666Z,94212.59
2018-07-23T17:44:05.288Z,94213.63
2018-07-23T17:46:31.931Z,94215.39
2018-07-23T17:48:58.565Z,94219.11
2018-07-23T17:51:25.218Z,94215.77
2018-07-23T17:53:51.851Z,94211.85
2018-07-23T17:56:18.538Z,94203.66
2018-07-23T17:58:45.145Z,94211.00
2018-07-23T18:01:11.782Z,94216.67
2018-07-23T18:03:38.429Z,94234.83
2018-07-23T18:06:05.063Z,94240.90
2018-07-23T18:08:31.696Z,94254.28
2018-07-23T18:10:58.321Z,94246.76
2018-07-23T18:13:25.022Z,94256.81
2018-07-23T18:15:51.666Z,94262.11
2018-07-23T18:18:18.284Z,94260.63
2018-07-23T18:20:44.955Z,94264.55
2018-07-23T18:23:11.581Z,94275.70
2018-07-23T18:25:38.208Z,94276.28
2018-07-23T18:28:04.839Z,94276.94
2018-07-23T18:30:31.476Z,94278.51
2018-07-23T18:32:58.173Z,94285.77
2018-07-23T18:35:24.805Z,94290.89
2018-07-23T18:37:51.473Z,94295.09
2018-07-23T18:40:18.076Z,94294.52
2018-07-23T18:42:44.773Z,94298.42
2018-07-23T18:45:11.349Z,94300.85
2018-07-23T18:47:38.039Z,94296.50
2018-07-23T18:50:04.652Z,94291.56
2018-07-23T18:52:31.307Z,94292.59
2018-07-23T18:54:57.981Z,94289.98
2018-07-23T18:57:24.582Z,94284.41
2018-07-23T18:59:51.294Z,94284.48
2018-07-23T19:02:17.882Z,94284.32
2018-07-23T19:04:44.508Z,94285.81
2018-07-23T19:07:11.143Z,94287.11
2018-07-23T19:09:37.779Z,94292.69
2018-07-23T19:12:04.445Z,94285.99
2018-07-23T19:14:31.075Z,94293.25
2018-07-23T19:16:57.707Z,94290.38
2018-07-23T19:19:24.368Z,94297.73
2018-07-23T19:21:51.034Z,94295.50
2018-07-23T19:24:17.682Z,94293.35
2018-07-23T19:26:44.383Z,94294.75
2018-07-23T19:29:10.983Z,94299.31
2018-07-23T19:31:37.615Z,94292.61
2018-07-23T19:34:04.248Z,94297.65
2018-07-23T19:36:30.950Z,94301.46
2018-07-23T19:38:57.597Z,94301.36
2018-07-23T19:41:24.296Z,94292.92
2018-07-23T19:43:50.893Z,94299.15
2018-07-23T19:46:17.552Z,94295.14
2018-07-23T19:48:44.192Z,94287.34
2018-07-23T19:51:10.827Z,94289.38
2018-07-23T19:53:37.468Z,94297.01
2018-07-23T19:56:04.157Z,94301.67
2018-07-23T19:58:30.825Z,94292.55
2018-07-23T20:00:57.465Z,94290.59
2018-07-23T20:03:24.143Z,94293.75
2018-07-23T20:05:50.779Z,94287.35
2018-07-23T20:08:18.094Z,94288.08
2018-07-23T20:10:44.732Z,94286.23
2018-07-23T20:13:11.366Z,94272.45
2018-07-23T20:15:38.009Z,94268.64
2018-07-23T20:18:04.685Z,94267.08
2018-07-23T20:20:31.325Z,94262.05
2018-07-23T20:22:57.960Z,94258.23
2018-07-23T20:25:24.596Z,94248.36
2018-07-23T20:27:51.235Z,94245.14
2018-07-23T20:30:17.878Z,94244.28
2018-07-23T20:32:44.516Z,94242.07
2018-07-23T20:35:11.252Z,94233.59
2018-07-23T20:37:37.839Z,94240.09
2018-07-23T20:40:04.512Z,94236.39
2018-07-23T20:42:31.191Z,94237.95
2018-07-23T20:44:57.829Z,94230.16
2018-07-23T20:47:24.472Z,94226.53
2018-07-23T20:49:51.133Z,94226.25
2018-07-23T20:52:17.832Z,94226.91
2018-07-23T20:54:44.460Z,94233.13
2018-07-23T20:57:11.093Z,94233.60
2018-07-23T20:59:37.889Z,94240.76
2018-07-23T21:02:04.526Z,94245.05
2018-07-23T21:04:31.161Z,94244.94
2018-07-23T21:06:57.844Z,94238.34
2018-07-23T21:09:24.519Z,94237.91
2018-07-23T21:11:51.148Z,94237.52
2018-07-23T21:14:17.792Z,94239.09
2018-07-23T21:16:44.429Z,94235.28
2018-07-23T21:19:11.065Z,94234.64
2018-07-23T21:21:37.704Z,94233.63
2018-07-23T21:24:04.342Z,94234.00
2018-07-23T21:26:30.979Z,94235.50
2018-07-23T21:28:57.620Z,94240.88
2018-07-23T21:31:24.243Z,94242.58
2018-07-23T21:33:50.892Z,94244.31
2018-07-23T21:36:17.565Z,94239.48
2018-07-23T21:38:44.211Z,94244.31
2018-07-23T21:41:10.891Z,94239.95
2018-07-23T21:43:37.514Z,94220.44
2018-07-23T21:46:04.152Z,94239.59
2018-07-23T21:48:30.821Z,94235.88
2018-07-23T21:50:57.460Z,94232.98
2018-07-23T21:53:24.094Z,94227.96
2018-07-23T21:55:50.731Z,94224.91
2018-07-23T21:58:17.372Z,94224.91
2018-07-23T22:00:44.120Z,94218.51
2018-07-23T22:03:10.645Z,94228.82
2018-07-23T22:05:37.315Z,94224.16
2018-07-23T22:08:03.994Z,94232.19
2018-07-23T22:10:30.660Z,94230.86
2018-07-23T22:12:57.345Z,94230.31
2018-07-23T22:15:23.890Z,94233.66
2018-07-23T22:17:50.532Z,94224.91
2018-07-23T22:20:17.210Z,94219.41
2018-07-23T22:22:43.847Z,94226.95
2018-07-23T22:25:10.513Z,94223.59
2018-07-23T22:27:37.191Z,94225.56
2018-07-23T22:30:03.833Z,94222.41
2018-07-23T22:32:30.518Z,94223.23
2018-07-23T22:34:57.140Z,94226.39
2018-07-23T22:37:23.770Z,94231.15
2018-07-23T22:39:50.406Z,94223.80
2018-07-23T22:42:17.051Z,94219.15
2018-07-23T22:44:43.687Z,94218.59
2018-07-23T22:47:10.324Z,94227.14
2018-07-23T22:49:37.005Z,94217.85
2018-07-23T22:52:03.645Z,94218.41
2018-07-23T22:54:30.287Z,94216.94
2018-07-23T22:56:56.946Z,94217.85
2018-07-23T22:59:23.582Z,94217.38
2018-07-23T23:01:50.229Z,94213.77
2018-07-23T23:04:16.857Z,94206.43
2018-07-23T23:06:43.494Z,94203.81
2018-07-23T23:09:10.132Z,94195.34
2018-07-23T23:11:36.805Z,94197.86
2018-07-23T23:14:03.441Z,94196.20
2018-07-23T23:16:30.076Z,94208.20
2018-07-23T23:18:56.751Z,94202.25
2018-07-23T23:21:23.396Z,94206.81
2018-07-23T23:23:50.068Z,94207.36
2018-07-23T23:26:16.739Z,94205.22
2018-07-23T23:28:43.445Z,94201.88
2018-07-23T23:31:10.041Z,94208.31
2018-07-23T23:33:36.715Z,94209.23
2018-07-23T23:36:03.352Z,94203.18
2018-07-23T23:38:29.989Z,94195.66
2018-07-23T23:40:56.626Z,94201.69
2018-07-23T23:43:23.303Z,94199.37
2018-07-23T23:45:49.931Z,94198.90
2018-07-23T23:48:16.621Z,94189.89
2018-07-23T23:50:43.308Z,94186.82
2018-07-23T23:53:09.945Z,94190.91
2018-07-23T23:55:36.627Z,94195.19
2018-07-23T23:58:03.265Z,94189.24
